sensor_id;sensor_type;location;lat;lon;timestamp;pressure;altitude;pressure_sealevel;temperature;humidity
26087;BME280;13851;43.434;28.338;2023-04-01T00:01:12;98917.63;;;10.48;100.00
26087;BME280;13851;43.434;28.338;2023-04-01T00:03:41;98981.50;;;10.55;100.00
26087;BME280;13851;43.434;28.338;2023-04-01T00:06:09;98933.25;;;10.61;100.00
26087;BME280;13851;43.434;28.338;2023-04-01T00:08:36;98966.75;;;10.63;100.00
26087;BME280;13851;43.434;28.338;2023-04-01T00:11:02;98817.88;;;10.16;100.00
26087;BME280;13851;43.434;28.338;2023-04-01T00:13:27;98834.41;;;10.36;100.00
26087;BME280;13851;43.434;28.338;2023-04-01T00:15:54;98887.75;;;10.60;100.00
26087;BME280;13851;43.434;28.338;2023-04-01T00:18:20;98920.44;;;10.68;100.00
26087;BME280;13851;43.434;28.338;2023-04-01T00:20:47;98917.53;;;10.89;100.00
26087;BME280;13851;43.434;28.338;2023-04-01T00:23:14;98931.00;;;10.84;100.00
26087;BME280;13851;43.434;28.338;2023-04-01T00:25:39;98935.00;;;10.75;100.00
26087;BME280;13851;43.434;28.338;2023-04-01T00:28:05;98907.34;;;10.63;100.00
26087;BME280;13851;43.434;28.338;2023-04-01T00:30:31;98924.06;;;10.82;100.00
26087;BME280;13851;43.434;28.338;2023-04-01T00:32:57;98920.25;;;10.83;100.00
26087;BME280;13851;43.434;28.338;2023-04-01T00:35:22;98876.16;;;10.58;100.00
26087;BME280;13851;43.434;28.338;2023-04-01T00:37:48;98879.50;;;10.53;100.00
26087;BME280;13851;43.434;28.338;2023-04-01T00:40:42;98876.59;;;10.55;100.00
26087;BME280;13851;43.434;28.338;2023-04-01T00:43:14;98934.19;;;10.94;100.00
26087;BME280;13851;43.434;28.338;2023-04-01T00:45:43;98876.38;;;10.63;100.00
26087;BME280;13851;43.434;28.338;2023-04-01T00:48:29;98908.88;;;10.79;100.00
26087;BME280;13851;43.434;28.338;2023-04-01T00:51:09;98657.69;;;9.32;100.00
26087;BME280;13851;43.434;28.338;2023-04-01T00:53:40;98836.75;;;10.52;100.00
26087;BME280;13851;43.434;28.338;2023-04-01T00:56:16;98920.13;;;11.11;100.00
26087;BME280;13851;43.434;28.338;2023-04-01T00:58:52;98933.38;;;11.14;100.00
26087;BME280;13851;43.434;28.338;2023-04-01T01:01:21;98917.56;;;11.09;100.00
26087;BME280;13851;43.434;28.338;2023-04-01T01:03:48;98883.41;;;10.99;100.00
26087;BME280;13851;43.434;28.338;2023-04-01T01:12:00;98895.66;;;11.23;100.00
26087;BME280;13851;43.434;28.338;2023-04-01T01:14:34;98905.78;;;11.35;100.00
26087;BME280;13851;43.434;28.338;2023-04-01T01:21:10;98899.44;;;11.35;100.00
26087;BME280;13851;43.434;28.338;2023-04-01T01:32:01;98940.78;;;11.40;100.00
26087;BME280;13851;43.434;28.338;2023-04-01T01:34:47;98901.16;;;11.29;100.00
26087;BME280;13851;43.434;28.338;2023-04-01T01:37:19;98580.34;;;9.32;100.00
26087;BME280;13851;43.434;28.338;2023-04-01T01:39:50;98892.28;;;11.27;100.00
26087;BME280;13851;43.434;28.338;2023-04-01T01:42:18;98888.84;;;10.79;100.00
26087;BME280;13851;43.434;28.338;2023-04-01T01:44:47;98597.91;;;9.16;100.00
26087;BME280;13851;43.434;28.338;2023-04-01T01:47:15;98873.69;;;10.89;100.00
26087;BME280;13851;43.434;28.338;2023-04-01T01:49:43;98866.47;;;10.62;100.00
26087;BME280;13851;43.434;28.338;2023-04-01T01:52:11;98906.72;;;10.68;100.00
26087;BME280;13851;43.434;28.338;2023-04-01T01:57:20;98852.06;;;10.33;100.00
26087;BME280;13851;43.434;28.338;2023-04-01T01:59:48;98886.78;;;10.26;100.00
26087;BME280;13851;43.434;28.338;2023-04-01T02:02:17;98590.69;;;8.32;100.00
26087;BME280;13851;43.434;28.338;2023-04-01T02:04:45;98862.97;;;9.51;100.00
26087;BME280;13851;43.434;28.338;2023-04-01T02:07:18;98866.19;;;9.61;100.00
26087;BME280;13851;43.434;28.338;2023-04-01T02:09:46;98883.69;;;9.67;100.00
26087;BME280;13851;43.434;28.338;2023-04-01T02:12:13;98871.28;;;9.64;100.00
26087;BME280;13851;43.434;28.338;2023-04-01T02:14:55;98905.41;;;9.47;100.00
26087;BME280;13851;43.434;28.338;2023-04-01T02:17:25;98645.16;;;8.19;100.00
26087;BME280;13851;43.434;28.338;2023-04-01T02:19:56;98840.13;;;9.30;100.00
26087;BME280;13851;43.434;28.338;2023-04-01T02:22:26;98551.03;;;7.52;100.00
26087;BME280;13851;43.434;28.338;2023-04-01T02:24:56;98856.38;;;9.38;100.00
26087;BME280;13851;43.434;28.338;2023-04-01T02:27:23;98884.75;;;9.37;100.00
26087;BME280;13851;43.434;28.338;2023-04-01T02:29:50;98806.88;;;8.99;100.00
26087;BME280;13851;43.434;28.338;2023-04-01T02:32:17;98686.47;;;8.16;100.00
26087;BME280;13851;43.434;28.338;2023-04-01T02:34:43;98780.88;;;9.03;100.00
26087;BME280;13851;43.434;28.338;2023-04-01T02:37:09;98592.66;;;7.89;100.00
26087;BME280;13851;43.434;28.338;2023-04-01T02:39:35;98768.06;;;9.03;100.00
26087;BME280;13851;43.434;28.338;2023-04-01T02:42:01;98811.59;;;9.40;100.00
26087;BME280;13851;43.434;28.338;2023-04-01T02:44:26;98493.16;;;7.50;100.00
26087;BME280;13851;43.434;28.338;2023-04-01T02:46:52;98754.00;;;9.06;100.00
26087;BME280;13851;43.434;28.338;2023-04-01T02:49:18;98802.31;;;9.34;100.00
26087;BME280;13851;43.434;28.338;2023-04-01T02:51:43;98822.88;;;9.30;100.00
26087;BME280;13851;43.434;28.338;2023-04-01T02:54:09;98774.13;;;8.99;100.00
26087;BME280;13851;43.434;28.338;2023-04-01T02:56:34;98830.72;;;9.40;100.00
26087;BME280;13851;43.434;28.338;2023-04-01T02:59:00;98758.53;;;8.93;100.00
26087;BME280;13851;43.434;28.338;2023-04-01T03:01:25;98845.69;;;9.44;100.00
26087;BME280;13851;43.434;28.338;2023-04-01T03:03:51;98845.69;;;9.44;100.00
26087;BME280;13851;43.434;28.338;2023-04-01T03:06:17;98633.06;;;8.28;100.00
26087;BME280;13851;43.434;28.338;2023-04-01T03:08:43;98782.50;;;9.25;100.00
26087;BME280;13851;43.434;28.338;2023-04-01T03:11:11;98831.47;;;9.55;100.00
26087;BME280;13851;43.434;28.338;2023-04-01T03:13:37;98825.13;;;9.48;100.00
26087;BME280;13851;43.434;28.338;2023-04-01T03:16:02;98828.94;;;9.53;100.00
26087;BME280;13851;43.434;28.338;2023-04-01T03:18:28;98541.97;;;7.95;100.00
26087;BME280;13851;43.434;28.338;2023-04-01T03:20:54;98819.13;;;9.72;100.00
26087;BME280;13851;43.434;28.338;2023-04-01T03:23:20;98512.34;;;7.92;100.00
26087;BME280;13851;43.434;28.338;2023-04-01T03:25:47;98810.94;;;9.72;100.00
26087;BME280;13851;43.434;28.338;2023-04-01T03:28:12;98811.34;;;9.62;100.00
26087;BME280;13851;43.434;28.338;2023-04-01T03:30:39;98528.16;;;7.75;100.00
26087;BME280;13851;43.434;28.338;2023-04-01T03:33:05;98752.44;;;8.91;100.00
26087;BME280;13851;43.434;28.338;2023-04-01T03:35:30;98570.41;;;7.64;100.00
26087;BME280;13851;43.434;28.338;2023-04-01T03:37:56;98760.88;;;8.96;100.00
26087;BME280;13851;43.434;28.338;2023-04-01T03:40:22;98789.91;;;9.03;100.00
26087;BME280;13851;43.434;28.338;2023-04-01T03:42:48;98566.28;;;7.68;100.00
26087;BME280;13851;43.434;28.338;2023-04-01T03:45:14;98814.31;;;9.33;100.00
26087;BME280;13851;43.434;28.338;2023-04-01T03:47:42;98793.41;;;9.25;100.00
26087;BME280;13851;43.434;28.338;2023-04-01T03:50:08;98810.78;;;9.46;100.00
26087;BME280;13851;43.434;28.338;2023-04-01T03:52:34;98819.31;;;9.57;100.00
26087;BME280;13851;43.434;28.338;2023-04-01T03:55:01;98806.38;;;9.45;100.00
26087;BME280;13851;43.434;28.338;2023-04-01T03:57:26;98743.25;;;9.05;100.00
26087;BME280;13851;43.434;28.338;2023-04-01T03:59:52;98832.09;;;9.57;100.00
26087;BME280;13851;43.434;28.338;2023-04-01T04:02:18;98795.19;;;9.40;100.00
26087;BME280;13851;43.434;28.338;2023-04-01T04:04:44;98498.53;;;7.65;100.00
26087;BME280;13851;43.434;28.338;2023-04-01T04:07:11;98818.50;;;9.70;100.00
26087;BME280;13851;43.434;28.338;2023-04-01T04:09:37;98761.44;;;9.54;100.00
26087;BME280;13851;43.434;28.338;2023-04-01T04:12:05;98793.38;;;9.95;100.00
26087;BME280;13851;43.434;28.338;2023-04-01T04:14:34;98773.19;;;9.96;100.00
26087;BME280;13851;43.434;28.338;2023-04-01T04:16:59;98786.31;;;10.20;100.00
26087;BME280;13851;43.434;28.338;2023-04-01T04:19:25;98734.41;;;9.79;100.00
26087;BME280;13851;43.434;28.338;2023-04-01T04:21:50;98835.25;;;10.36;100.00
26087;BME280;13851;43.434;28.338;2023-04-01T04:24:16;98765.88;;;10.09;100.00
26087;BME280;13851;43.434;28.338;2023-04-01T04:26:41;98497.34;;;8.72;100.00
26087;BME280;13851;43.434;28.338;2023-04-01T04:29:07;98754.78;;;10.24;100.00
26087;BME280;13851;43.434;28.338;2023-04-01T04:31:33;98483.63;;;8.58;100.00
26087;BME280;13851;43.434;28.338;2023-04-01T04:33:59;98769.94;;;10.27;100.00
26087;BME280;13851;43.434;28.338;2023-04-01T04:36:26;98404.59;;;7.96;100.00
26087;BME280;13851;43.434;28.338;2023-04-01T04:38:52;98739.28;;;9.90;100.00
26087;BME280;13851;43.434;28.338;2023-04-01T04:41:18;98781.69;;;10.14;100.00
26087;BME280;13851;43.434;28.338;2023-04-01T04:43:55;98750.91;;;9.99;100.00
26087;BME280;13851;43.434;28.338;2023-04-01T04:46:24;98616.81;;;9.11;100.00
26087;BME280;13851;43.434;28.338;2023-04-01T04:48:50;98743.91;;;9.83;100.00
26087;BME280;13851;43.434;28.338;2023-04-01T04:51:17;98474.16;;;8.20;100.00
26087;BME280;13851;43.434;28.338;2023-04-01T04:53:43;98726.41;;;9.77;100.00
26087;BME280;13851;43.434;28.338;2023-04-01T04:56:09;98810.75;;;10.22;100.00
26087;BME280;13851;43.434;28.338;2023-04-01T04:58:38;98793.03;;;10.18;100.00
26087;BME280;13851;43.434;28.338;2023-04-01T05:01:09;98795.59;;;10.19;100.00
26087;BME280;13851;43.434;28.338;2023-04-01T05:03:36;98796.38;;;10.13;100.00
26087;BME280;13851;43.434;28.338;2023-04-01T05:06:04;98827.84;;;10.24;100.00
26087;BME280;13851;43.434;28.338;2023-04-01T05:08:30;98850.72;;;10.16;100.00
26087;BME280;13851;43.434;28.338;2023-04-01T05:10:58;98618.38;;;8.51;100.00
26087;BME280;13851;43.434;28.338;2023-04-01T05:13:23;98847.50;;;9.64;100.00
26087;BME280;13851;43.434;28.338;2023-04-01T05:15:51;98858.66;;;9.63;100.00
26087;BME280;13851;43.434;28.338;2023-04-01T05:18:17;98885.91;;;9.84;100.00
26087;BME280;13851;43.434;28.338;2023-04-01T05:20:50;98907.00;;;9.90;100.00
26087;BME280;13851;43.434;28.338;2023-04-01T05:23:16;98614.16;;;7.99;100.00
26087;BME280;13851;43.434;28.338;2023-04-01T05:25:42;98875.72;;;9.37;100.00
26087;BME280;13851;43.434;28.338;2023-04-01T05:28:08;98900.84;;;9.54;100.00
26087;BME280;13851;43.434;28.338;2023-04-01T05:30:33;98888.41;;;9.51;100.00
26087;BME280;13851;43.434;28.338;2023-04-01T05:32:59;98934.25;;;9.49;100.00
26087;BME280;13851;43.434;28.338;2023-04-01T05:35:25;98912.03;;;9.59;100.00
26087;BME280;13851;43.434;28.338;2023-04-01T05:37:51;98838.09;;;9.11;100.00
26087;BME280;13851;43.434;28.338;2023-04-01T05:40:16;98690.88;;;8.39;100.00
26087;BME280;13851;43.434;28.338;2023-04-01T05:42:42;98838.81;;;9.26;100.00
26087;BME280;13851;43.434;28.338;2023-04-01T05:45:08;98873.31;;;9.27;100.00
26087;BME280;13851;43.434;28.338;2023-04-01T05:47:34;98899.22;;;9.59;100.00
26087;BME280;13851;43.434;28.338;2023-04-01T05:50:00;98896.69;;;9.58;100.00
26087;BME280;13851;43.434;28.338;2023-04-01T05:52:25;98865.88;;;9.43;100.00
26087;BME280;13851;43.434;28.338;2023-04-01T05:54:51;98889.25;;;9.52;100.00
26087;BME280;13851;43.434;28.338;2023-04-01T05:57:16;98891.13;;;9.45;100.00
26087;BME280;13851;43.434;28.338;2023-04-01T05:59:42;98880.56;;;9.42;100.00
26087;BME280;13851;43.434;28.338;2023-04-01T06:02:09;98817.22;;;9.03;100.00
26087;BME280;13851;43.434;28.338;2023-04-01T06:04:38;98876.34;;;9.39;100.00
26087;BME280;13851;43.434;28.338;2023-04-01T06:07:15;98883.72;;;9.38;100.00
26087;BME280;13851;43.434;28.338;2023-04-01T06:09:42;98878.50;;;9.44;100.00
26087;BME280;13851;43.434;28.338;2023-04-01T06:23:22;98915.56;;;9.53;100.00
26087;BME280;13851;43.434;28.338;2023-04-01T06:36:42;98805.66;;;9.29;100.00
26087;BME280;13851;43.434;28.338;2023-04-01T06:44:53;98848.13;;;9.67;100.00
26087;BME280;13851;43.434;28.338;2023-04-01T06:47:36;98861.41;;;9.63;100.00
26087;BME280;13851;43.434;28.338;2023-04-01T06:55:46;98850.84;;;9.60;100.00
26087;BME280;13851;43.434;28.338;2023-04-01T07:01:14;98881.06;;;9.52;100.00
26087;BME280;13851;43.434;28.338;2023-04-01T07:03:51;98830.88;;;9.59;100.00
26087;BME280;13851;43.434;28.338;2023-04-01T07:06:43;98830.50;;;9.69;100.00
26087;BME280;13851;43.434;28.338;2023-04-01T07:09:37;98843.16;;;9.77;100.00
26087;BME280;13851;43.434;28.338;2023-04-01T07:12:18;98804.13;;;9.55;100.00
26087;BME280;13851;43.434;28.338;2023-04-01T07:14:47;98839.19;;;9.79;100.00
26087;BME280;13851;43.434;28.338;2023-04-01T07:17:19;98823.81;;;9.78;100.00
26087;BME280;13851;43.434;28.338;2023-04-01T07:22:31;98486.13;;;7.91;100.00
26087;BME280;13851;43.434;28.338;2023-04-01T07:25:03;98796.25;;;9.73;100.00
26087;BME280;13851;43.434;28.338;2023-04-01T07:27:30;98811.00;;;9.85;100.00
26087;BME280;13851;43.434;28.338;2023-04-01T07:29:57;98814.38;;;9.87;100.00
26087;BME280;13851;43.434;28.338;2023-04-01T07:32:31;98807.28;;;9.93;100.00
26087;BME280;13851;43.434;28.338;2023-04-01T07:40:18;98822.19;;;9.90;100.00
26087;BME280;13851;43.434;28.338;2023-04-01T07:49:14;98824.47;;;9.87;100.00
26087;BME280;13851;43.434;28.338;2023-04-01T08:05:14;98782.38;;;9.81;100.00
26087;BME280;13851;43.434;28.338;2023-04-01T08:08:06;98818.00;;;9.95;100.00
26087;BME280;13851;43.434;28.338;2023-04-01T08:15:52;98785.44;;;10.06;100.00
26087;BME280;13851;43.434;28.338;2023-04-01T08:21:10;98831.25;;;9.98;100.00
26087;BME280;13851;43.434;28.338;2023-04-01T08:23:47;98810.19;;;9.92;100.00
26087;BME280;13851;43.434;28.338;2023-04-01T08:29:11;98830.88;;;10.01;100.00
26087;BME280;13851;43.434;28.338;2023-04-01T08:31:51;98839.31;;;10.06;100.00
26087;BME280;13851;43.434;28.338;2023-04-01T08:34:40;98785.75;;;10.25;100.00
26087;BME280;13851;43.434;28.338;2023-04-01T08:37:11;98786.81;;;10.44;100.00
26087;BME280;13851;43.434;28.338;2023-04-01T08:39:44;98778.41;;;10.45;100.00
26087;BME280;13851;43.434;28.338;2023-04-01T09:31:48;98779.06;;;10.87;100.00
26087;BME280;13851;43.434;28.338;2023-04-01T09:57:04;98733.50;;;11.32;100.00
26087;BME280;13851;43.434;28.338;2023-04-01T10:02:59;98781.75;;;11.47;100.00
26087;BME280;13851;43.434;28.338;2023-04-01T10:11:21;98763.47;;;11.99;100.00
26087;BME280;13851;43.434;28.338;2023-04-01T10:24:45;98723.38;;;12.29;100.00
26087;BME280;13851;43.434;28.338;2023-04-01T10:27:23;98708.94;;;12.40;100.00
26087;BME280;13851;43.434;28.338;2023-04-01T10:30:29;98691.41;;;12.41;100.00
26087;BME280;13851;43.434;28.338;2023-04-01T10:39:28;98385.16;;;10.06;100.00
26087;BME280;13851;43.434;28.338;2023-04-01T11:16:16;98487.19;;;12.72;100.00
26087;BME280;13851;43.434;28.338;2023-04-01T11:32:29;98488.44;;;12.15;100.00
26087;BME280;13851;43.434;28.338;2023-04-01T11:41:28;98490.22;;;12.03;100.00
26087;BME280;13851;43.434;28.338;2023-04-01T11:55:15;98187.81;;;9.96;100.00
26087;BME280;13851;43.434;28.338;2023-04-01T12:14:50;98517.75;;;11.96;100.00
26087;BME280;13851;43.434;28.338;2023-04-01T12:23:32;98530.22;;;11.92;100.00
26087;BME280;13851;43.434;28.338;2023-04-01T12:26:12;98538.44;;;11.99;100.00
26087;BME280;13851;43.434;28.338;2023-04-01T12:31:52;98526.06;;;12.08;100.00
26087;BME280;13851;43.434;28.338;2023-04-01T12:45:31;98528.00;;;12.51;100.00
26087;BME280;13851;43.434;28.338;2023-04-01T12:56:48;98475.66;;;12.64;100.00
26087;BME280;13851;43.434;28.338;2023-04-01T13:21:50;98488.88;;;12.12;100.00
26087;BME280;13851;43.434;28.338;2023-04-01T13:35:41;98512.34;;;12.33;100.00
26087;BME280;13851;43.434;28.338;2023-04-01T13:38:41;98513.16;;;12.33;100.00
26087;BME280;13851;43.434;28.338;2023-04-01T13:41:30;98506.09;;;12.26;100.00
26087;BME280;13851;43.434;28.338;2023-04-01T13:55:22;98412.47;;;12.64;100.00
26087;BME280;13851;43.434;28.338;2023-04-01T14:06:31;98470.31;;;12.32;100.00
26087;BME280;13851;43.434;28.338;2023-04-01T14:11:56;98454.81;;;12.38;100.00
26087;BME280;13851;43.434;28.338;2023-04-01T14:17:47;98447.00;;;12.60;100.00
26087;BME280;13851;43.434;28.338;2023-04-01T14:42:23;98281.22;;;13.66;100.00
26087;BME280;13851;43.434;28.338;2023-04-01T14:47:59;97982.94;;;11.53;100.00
26087;BME280;13851;43.434;28.338;2023-04-01T14:50:32;98204.06;;;12.79;100.00
26087;BME280;13851;43.434;28.338;2023-04-01T14:53:26;98293.09;;;13.43;100.00
26087;BME280;13851;43.434;28.338;2023-04-01T14:56:02;97957.31;;;11.59;100.00
26087;BME280;13851;43.434;28.338;2023-04-01T14:58:44;98280.88;;;13.39;100.00
26087;BME280;13851;43.434;28.338;2023-04-01T15:12:30;98287.28;;;13.10;100.00
26087;BME280;13851;43.434;28.338;2023-04-01T15:15:27;98292.06;;;13.02;100.00
26087;BME280;13851;43.434;28.338;2023-04-01T15:18:08;98222.47;;;12.67;100.00
26087;BME280;13851;43.434;28.338;2023-04-01T15:23:51;98275.09;;;13.06;100.00
26087;BME280;13851;43.434;28.338;2023-04-01T15:32:25;98243.53;;;13.20;100.00
26087;BME280;13851;43.434;28.338;2023-04-01T15:37:59;98245.72;;;13.18;100.00
26087;BME280;13851;43.434;28.338;2023-04-01T15:49:23;98189.03;;;12.93;100.00
26087;BME280;13851;43.434;28.338;2023-04-01T15:54:47;98232.81;;;13.07;100.00
26087;BME280;13851;43.434;28.338;2023-04-01T16:24:13;98261.59;;;12.51;100.00
26087;BME280;13851;43.434;28.338;2023-04-01T16:26:47;98307.72;;;12.60;100.00
26087;BME280;13851;43.434;28.338;2023-04-01T16:32:21;98013.78;;;11.00;100.00
26087;BME280;13851;43.434;28.338;2023-04-01T16:35:03;98243.91;;;12.46;100.00
26087;BME280;13851;43.434;28.338;2023-04-01T16:37:38;97908.13;;;10.44;100.00
26087;BME280;13851;43.434;28.338;2023-04-01T16:40:22;98006.88;;;10.97;100.00
26087;BME280;13851;43.434;28.338;2023-04-01T16:42:56;98249.84;;;12.43;100.00
26087;BME280;13851;43.434;28.338;2023-04-01T16:45:37;98049.84;;;11.15;100.00
26087;BME280;13851;43.434;28.338;2023-04-01T16:48:13;98251.63;;;12.38;100.00
26087;BME280;13851;43.434;28.338;2023-04-01T16:50:57;98155.63;;;11.71;100.00
26087;BME280;13851;43.434;28.338;2023-04-01T16:53:46;98273.44;;;12.33;100.00
26087;BME280;13851;43.434;28.338;2023-04-01T16:56:24;98259.16;;;12.42;100.00
26087;BME280;13851;43.434;28.338;2023-04-01T16:59:07;98240.75;;;12.31;100.00
26087;BME280;13851;43.434;28.338;2023-04-01T17:01:44;98304.09;;;12.48;100.00
26087;BME280;13851;43.434;28.338;2023-04-01T17:04:38;98259.78;;;12.44;100.00
26087;BME280;13851;43.434;28.338;2023-04-01T17:07:15;98244.09;;;12.33;100.00
26087;BME280;13851;43.434;28.338;2023-04-01T17:18:14;98258.50;;;12.59;100.00
26087;BME280;13851;43.434;28.338;2023-04-01T17:20:46;98221.94;;;12.46;100.00
26087;BME280;13851;43.434;28.338;2023-04-01T17:23:38;98254.97;;;12.70;100.00
26087;BME280;13851;43.434;28.338;2023-04-01T17:28:52;98242.78;;;12.66;100.00
26087;BME280;13851;43.434;28.338;2023-04-01T17:36:51;98247.88;;;12.62;100.00
26087;BME280;13851;43.434;28.338;2023-04-01T17:42:20;98238.25;;;12.83;100.00
26087;BME280;13851;43.434;28.338;2023-04-01T17:44:59;98219.03;;;12.83;100.00
26087;BME280;13851;43.434;28.338;2023-04-01T17:55:51;98233.31;;;12.50;100.00
26087;BME280;13851;43.434;28.338;2023-04-01T18:04:08;98105.13;;;11.60;100.00
26087;BME280;13851;43.434;28.338;2023-04-01T18:06:47;98022.31;;;11.10;100.00
26087;BME280;13851;43.434;28.338;2023-04-01T18:20:43;98293.66;;;12.38;100.00
26087;BME280;13851;43.434;28.338;2023-04-01T18:23:21;98241.97;;;12.35;100.00
26087;BME280;13851;43.434;28.338;2023-04-01T18:25:53;98249.78;;;12.50;100.00
26087;BME280;13851;43.434;28.338;2023-04-01T18:28:42;98232.50;;;12.31;100.00
26087;BME280;13851;43.434;28.338;2023-04-01T18:31:20;98255.63;;;12.54;100.00
26087;BME280;13851;43.434;28.338;2023-04-01T18:36:43;98244.84;;;12.82;100.00
26087;BME280;13851;43.434;28.338;2023-04-01T18:39:22;98250.41;;;12.64;100.00
26087;BME280;13851;43.434;28.338;2023-04-01T18:42:06;98218.47;;;12.39;100.00
26087;BME280;13851;43.434;28.338;2023-04-01T18:44:50;98299.50;;;12.60;100.00
26087;BME280;13851;43.434;28.338;2023-04-01T18:47:36;98000.97;;;10.63;100.00
26087;BME280;13851;43.434;28.338;2023-04-01T18:52:52;98330.75;;;12.11;100.00
26087;BME280;13851;43.434;28.338;2023-04-01T18:55:30;98321.41;;;12.00;100.00
26087;BME280;13851;43.434;28.338;2023-04-01T19:03:24;98386.41;;;12.00;100.00
26087;BME280;13851;43.434;28.338;2023-04-01T19:05:55;98298.94;;;11.66;100.00
26087;BME280;13851;43.434;28.338;2023-04-01T19:08:30;98352.78;;;11.86;100.00
26087;BME280;13851;43.434;28.338;2023-04-01T19:14:12;98006.16;;;9.53;100.00
26087;BME280;13851;43.434;28.338;2023-04-01T19:22:27;98401.50;;;11.65;100.00
26087;BME280;13851;43.434;28.338;2023-04-01T19:28:26;98378.84;;;11.52;100.00
26087;BME280;13851;43.434;28.338;2023-04-01T19:30:59;98431.13;;;11.57;100.00
26087;BME280;13851;43.434;28.338;2023-04-01T19:33:50;98385.44;;;11.69;100.00
26087;BME280;13851;43.434;28.338;2023-04-01T19:39:17;98112.13;;;9.89;100.00
26087;BME280;13851;43.434;28.338;2023-04-01T19:52:49;98383.47;;;11.51;100.00
26087;BME280;13851;43.434;28.338;2023-04-01T19:55:42;98078.16;;;9.72;100.00
26087;BME280;13851;43.434;28.338;2023-04-01T20:00:48;98321.53;;;11.43;100.00
26087;BME280;13851;43.434;28.338;2023-04-01T20:11:57;98398.59;;;11.85;100.00
26087;BME280;13851;43.434;28.338;2023-04-01T20:14:48;98382.59;;;11.76;100.00
26087;BME280;13851;43.434;28.338;2023-04-01T20:17:21;98364.09;;;11.46;100.00
26087;BME280;13851;43.434;28.338;2023-04-01T20:19:59;98402.44;;;11.78;100.00
26087;BME280;13851;43.434;28.338;2023-04-01T20:22:37;98177.13;;;10.26;100.00
26087;BME280;13851;43.434;28.338;2023-04-01T20:25:30;98411.06;;;11.56;100.00
26087;BME280;13851;43.434;28.338;2023-04-01T20:28:05;98416.34;;;11.58;100.00
26087;BME280;13851;43.434;28.338;2023-04-01T20:56:17;98482.31;;;11.63;100.00
26087;BME280;13851;43.434;28.338;2023-04-01T21:14:56;98463.66;;;12.03;100.00
26087;BME280;13851;43.434;28.338;2023-04-01T21:20:43;98412.84;;;11.69;100.00
26087;BME280;13851;43.434;28.338;2023-04-01T21:34:28;98405.22;;;11.71;100.00
26087;BME280;13851;43.434;28.338;2023-04-01T21:37:13;98521.78;;;12.18;100.00
26087;BME280;13851;43.434;28.338;2023-04-01T21:45:24;98482.13;;;12.14;100.00
26087;BME280;13851;43.434;28.338;2023-04-01T21:48:22;98516.00;;;12.02;100.00
26087;BME280;13851;43.434;28.338;2023-04-01T22:05:24;98482.47;;;12.00;100.00
26087;BME280;13851;43.434;28.338;2023-04-01T22:08:03;98486.31;;;12.17;100.00
26087;BME280;13851;43.434;28.338;2023-04-01T22:10:38;98491.78;;;12.17;100.00
26087;BME280;13851;43.434;28.338;2023-04-01T22:13:16;98492.34;;;12.26;100.00
26087;BME280;13851;43.434;28.338;2023-04-01T22:21:07;98400.91;;;11.88;100.00
26087;BME280;13851;43.434;28.338;2023-04-01T22:23:53;98470.75;;;12.11;100.00
26087;BME280;13851;43.434;28.338;2023-04-01T22:29:22;98307.41;;;10.97;100.00
26087;BME280;13851;43.434;28.338;2023-04-01T22:32:16;98503.94;;;11.78;100.00
26087;BME280;13851;43.434;28.338;2023-04-01T22:40:23;98503.91;;;11.84;100.00
26087;BME280;13851;43.434;28.338;2023-04-01T22:42:59;98238.66;;;10.10;100.00
26087;BME280;13851;43.434;28.338;2023-04-01T22:54:18;98257.53;;;9.80;100.00
26087;BME280;13851;43.434;28.338;2023-04-01T22:56:49;98551.31;;;11.60;100.00
26087;BME280;13851;43.434;28.338;2023-04-01T22:59:53;98561.88;;;11.63;100.00
26087;BME280;13851;43.434;28.338;2023-04-01T23:02:45;98563.50;;;11.70;100.00
26087;BME280;13851;43.434;28.338;2023-04-01T23:05:17;98447.09;;;11.03;100.00
26087;BME280;13851;43.434;28.338;2023-04-01T23:10:41;98457.13;;;11.16;100.00
26087;BME280;13851;43.434;28.338;2023-04-01T23:13:14;98530.44;;;11.59;100.00
26087;BME280;13851;43.434;28.338;2023-04-01T23:15:42;98256.84;;;9.91;100.00
26087;BME280;13851;43.434;28.338;2023-04-01T23:18:13;98568.91;;;11.77;100.00
26087;BME280;13851;43.434;28.338;2023-04-01T23:21:11;98563.44;;;11.77;100.00
26087;BME280;13851;43.434;28.338;2023-04-01T23:23:50;98575.25;;;11.84;100.00
26087;BME280;13851;43.434;28.338;2023-04-01T23:29:00;98523.13;;;11.46;100.00
26087;BME280;13851;43.434;28.338;2023-04-01T23:34:00;98570.88;;;11.70;100.00
26087;BME280;13851;43.434;28.338;2023-04-01T23:36:30;98558.91;;;11.64;100.00
26087;BME280;13851;43.434;28.338;2023-04-01T23:39:03;98198.59;;;9.39;100.00
26087;BME280;13851;43.434;28.338;2023-04-01T23:41:31;98551.00;;;11.43;100.00
26087;BME280;13851;43.434;28.338;2023-04-01T23:44:11;98516.50;;;11.29;100.00
26087;BME280;13851;43.434;28.338;2023-04-01T23:46:39;98510.78;;;11.30;100.00
26087;BME280;13851;43.434;28.338;2023-04-01T23:49:13;98505.50;;;11.35;100.00
26087;BME280;13851;43.434;28.338;2023-04-01T23:51:50;98475.34;;;11.35;100.00
26087;BME280;13851;43.434;28.338;2023-04-01T23:56:54;98489.63;;;11.44;100.00
